Time;durP1;ratioP1;P1;durP2;ratioP2;P2;SDS_P1;SDS_P2;PMS_P1;PMS_P2;Temp;Humidity;BMP_temperature;BMP_pressure;BME280_temperature;BME280_humidity;BME280_pressure;Samples;Min_cycle;Max_cycle;Signal;HPM_P1;HPM_P2
2023/04/27 00:01:19;;;;;;;11.65;6.32;;;;;;;;;;5052027;28;20025;-70
2023/04/27 00:03:46;;;;;;;7.97;4.38;;;;;;;;;;5038569;28;20021;-58
2023/04/27 00:06:12;;;;;;;28.98;17.90;;;;;;;;;;5052145;28;20025;-61
2023/04/27 00:08:38;;;;;;;12.65;6.78;;;;;;;;;;5052082;28;20364;-60
2023/04/27 00:11:04;;;;;;;7.32;4.07;;;;;;;;;;5052577;28;20409;-60
2023/04/27 00:13:30;;;;;;;13.00;7.00;;;;;;;;;;5038331;28;20032;-70
2023/04/27 00:15:59;;;;;;;9.70;4.00;;;;;;;;;;5033449;28;20108;-71
2023/04/27 00:18:25;;;;;;;30.83;12.88;;;;;;;;;;5052188;28;20470;-68
2023/04/27 00:20:51;;;;;;;16.88;9.50;;;;;;;;;;5051343;28;20104;-72
2023/04/27 00:23:17;;;;;;;9.40;4.85;;;;;;;;;;5051824;28;20087;-66
2023/04/27 00:25:43;;;;;;;13.45;11.63;;;;;;;;;;5051931;28;20025;-61
2023/04/27 00:28:09;;;;;;;7.00;3.95;;;;;;;;;;5051749;28;20035;-58
2023/04/27 00:30:35;;;;;;;17.70;10.48;;;;;;;;;;5051673;28;20072;-69
2023/04/27 00:33:02;;;;;;;7.68;4.32;;;;;;;;;;5051672;28;20478;-71
2023/04/27 00:35:28;;;;;;;16.20;8.45;;;;;;;;;;5034493;28;20529;-65
2023/04/27 00:37:54;;;;;;;10.43;5.00;;;;;;;;;;5031904;28;20042;-59
2023/04/27 00:40:20;;;;;;;26.83;17.17;;;;;;;;;;5031682;28;20017;-72
2023/04/27 00:42:46;;;;;;;10.73;4.95;;;;;;;;;;5031729;28;20108;-71
2023/04/27 00:45:13;;;;;;;22.45;11.15;;;;;;;;;;5031589;28;20021;-70
2023/04/27 00:47:39;;;;;;;17.63;9.82;;;;;;;;;;5032023;28;20057;-61
2023/04/27 00:50:07;;;;;;;8.80;5.57;;;;;;;;;;5047320;28;20029;-75
2023/04/27 00:52:34;;;;;;;15.07;7.60;;;;;;;;;;5051149;28;20072;-57
2023/04/27 00:55:03;;;;;;;16.95;11.70;;;;;;;;;;5050897;28;20109;-57
2023/04/27 00:57:29;;;;;;;7.85;4.95;;;;;;;;;;5042194;28;20040;-59
2023/04/27 00:59:55;;;;;;;9.07;4.55;;;;;;;;;;5044397;28;20090;-59
2023/04/27 01:02:21;;;;;;;12.02;7.40;;;;;;;;;;5037786;28;20050;-57
2023/04/27 01:04:49;;;;;;;13.82;5.93;;;;;;;;;;5040343;28;20022;-57
2023/04/27 01:07:15;;;;;;;13.55;5.75;;;;;;;;;;5031328;28;20025;-57
2023/04/27 01:09:41;;;;;;;6.28;3.70;;;;;;;;;;5031137;28;20083;-56
2023/04/27 01:12:08;;;;;;;6.32;3.50;;;;;;;;;;5031248;28;20052;-59
2023/04/27 01:14:35;;;;;;;8.48;4.75;;;;;;;;;;5031173;28;20022;-58
2023/04/27 01:17:01;;;;;;;7.03;3.88;;;;;;;;;;5031265;28;20040;-57
2023/04/27 01:19:28;;;;;;;9.95;4.30;;;;;;;;;;5050644;28;20029;-65
2023/04/27 01:21:54;;;;;;;6.97;3.88;;;;;;;;;;5036651;28;20038;-57
2023/04/27 01:24:20;;;;;;;5.82;3.58;;;;;;;;;;5030895;28;20076;-57
2023/04/27 01:26:46;;;;;;;6.13;3.15;;;;;;;;;;5030969;28;20083;-57
2023/04/27 01:29:12;;;;;;;12.25;4.95;;;;;;;;;;5049554;28;20028;-57
2023/04/27 01:31:38;;;;;;;9.02;4.60;;;;;;;;;;5050901;28;20029;-56
2023/04/27 01:34:04;;;;;;;24.88;14.57;;;;;;;;;;5050446;28;20090;-59
2023/04/27 01:36:31;;;;;;;14.63;6.88;;;;;;;;;;5050024;28;20044;-57
2023/04/27 01:38:57;;;;;;;6.15;3.70;;;;;;;;;;5043911;28;20025;-62
2023/04/27 01:41:23;;;;;;;7.03;4.32;;;;;;;;;;5043362;28;20094;-61
2023/04/27 01:43:49;;;;;;;7.22;3.90;;;;;;;;;;5050179;28;20387;-58
2023/04/27 01:46:15;;;;;;;12.55;5.50;;;;;;;;;;5050384;28;20040;-63
2023/04/27 01:48:41;;;;;;;11.90;7.57;;;;;;;;;;5049854;28;20032;-58
2023/04/27 01:51:07;;;;;;;8.20;4.72;;;;;;;;;;5049777;28;20039;-58
2023/04/27 01:53:33;;;;;;;8.95;5.32;;;;;;;;;;5050076;28;20043;-57
2023/04/27 01:56:00;;;;;;;8.40;4.85;;;;;;;;;;5049702;28;20508;-70
2023/04/27 01:58:26;;;;;;;7.78;5.60;;;;;;;;;;5049656;28;20031;-72
2023/04/27 02:00:52;;;;;;;6.50;3.95;;;;;;;;;;5050326;28;20045;-72
2023/04/27 02:03:18;;;;;;;6.38;3.13;;;;;;;;;;5050207;28;20021;-57
2023/04/27 02:05:46;;;;;;;9.75;3.75;;;;;;;;;;5042409;28;20017;-58
2023/04/27 02:08:12;;;;;;;5.78;3.38;;;;;;;;;;5044674;28;20528;-57
2023/04/27 02:10:38;;;;;;;8.65;3.03;;;;;;;;;;5049968;28;20113;-57
2023/04/27 02:13:04;;;;;;;7.85;3.47;;;;;;;;;;5049971;28;20017;-60
2023/04/27 02:15:31;;;;;;;8.82;3.10;;;;;;;;;;5049811;28;20407;-71
2023/04/27 02:17:57;;;;;;;5.50;3.70;;;;;;;;;;5049942;28;20040;-57
2023/04/27 02:20:23;;;;;;;7.57;3.75;;;;;;;;;;5049631;28;20086;-67
2023/04/27 02:22:49;;;;;;;7.53;4.43;;;;;;;;;;5049340;28;20349;-58
2023/04/27 02:25:15;;;;;;;7.60;3.75;;;;;;;;;;5049752;28;20028;-57
2023/04/27 02:27:42;;;;;;;7.88;3.85;;;;;;;;;;5049530;28;20021;-65
2023/04/27 02:30:09;;;;;;;5.28;3.40;;;;;;;;;;5049565;28;20041;-59
2023/04/27 02:32:35;;;;;;;4.68;3.13;;;;;;;;;;5049597;28;20036;-69
2023/04/27 02:35:01;;;;;;;6.55;3.00;;;;;;;;;;5049668;28;20017;-65
2023/04/27 02:37:28;;;;;;;7.85;3.13;;;;;;;;;;5048854;28;20049;-68
2023/04/27 02:39:54;;;;;;;6.93;3.25;;;;;;;;;;5049527;28;20100;-57
2023/04/27 02:42:21;;;;;;;7.22;6.13;;;;;;;;;;5048844;28;20059;-57
2023/04/27 02:44:47;;;;;;;8.38;4.10;;;;;;;;;;5049369;28;20025;-68
2023/04/27 02:47:13;;;;;;;7.53;3.40;;;;;;;;;;5048966;28;20031;-69
2023/04/27 02:49:39;;;;;;;7.22;3.63;;;;;;;;;;5049023;28;20035;-69
2023/04/27 02:52:05;;;;;;;4.22;3.33;;;;;;;;;;5048821;28;20057;-58
2023/04/27 02:54:32;;;;;;;7.85;3.17;;;;;;;;;;5049134;28;20021;-69
2023/04/27 02:56:58;;;;;;;5.05;3.72;;;;;;;;;;5048921;28;20094;-59
2023/04/27 02:59:24;;;;;;;6.88;3.85;;;;;;;;;;5049620;28;20032;-58
2023/04/27 03:01:50;;;;;;;6.53;3.28;;;;;;;;;;5035678;28;20064;-58
2023/04/27 03:04:16;;;;;;;13.15;5.15;;;;;;;;;;5048968;28;20013;-58
2023/04/27 03:06:42;;;;;;;7.75;4.18;;;;;;;;;;5048038;28;20063;-58
2023/04/27 03:09:09;;;;;;;7.28;4.45;;;;;;;;;;5049103;28;20074;-58
2023/04/27 03:11:35;;;;;;;5.70;3.60;;;;;;;;;;5049059;28;20040;-64
2023/04/27 03:14:02;;;;;;;8.80;5.03;;;153.70;2252.80;;;;;;5049217;28;20098;-58
2023/04/27 03:16:27;;;;;;;7.13;4.18;;;153.80;2252.80;;;;;;5048594;28;20041;-59
2023/04/27 03:18:53;;;;;;;7.60;4.03;;;153.70;2252.80;;;;;;5049213;28;20033;-66
2023/04/27 03:21:19;;;;;;;8.27;3.92;;;128.90;2252.80;;;;;;5050478;28;20032;-69
2023/04/27 03:23:45;;;;;;;9.98;4.30;;;128.90;2252.80;;;;;;5052849;28;20433;-58
2023/04/27 03:26:12;;;;;;;8.50;3.95;;;128.90;2252.80;;;;;;5052944;28;20025;-57
2023/04/27 03:28:39;;;;;;;8.57;4.35;;;153.60;2252.80;;;;;;5052941;28;20033;-58
2023/04/27 03:31:10;;;;;;;8.98;4.68;;;153.60;2252.80;;;;;;5053034;28;20029;-62
2023/04/27 03:33:36;;;;;;;10.60;5.10;;;128.90;2252.80;;;;;;5053074;28;20508;-73
2023/04/27 03:36:03;;;;;;;12.23;5.97;;;128.90;2252.80;;;;;;5048952;28;20108;-58
2023/04/27 03:38:29;;;;;;;15.05;10.05;;;;;;;;;;5042663;28;20109;-71
2023/04/27 03:40:56;;;;;;;17.27;10.50;;;128.60;2252.80;;;;;;5052451;28;20020;-72
2023/04/27 03:43:22;;;;;;;18.98;10.20;;;128.50;2252.80;;;;;;5052624;28;20020;-67
2023/04/27 03:45:48;;;;;;;14.80;7.43;;;128.40;2252.80;;;;;;5052227;28;20025;-59
2023/04/27 03:48:15;;;;;;;19.73;8.57;;;128.40;2252.80;;;;;;5052820;28;20060;-57
2023/04/27 03:50:41;;;;;;;8.80;5.60;;;128.40;2252.80;;;;;;5051891;28;20021;-71
2023/04/27 03:53:08;;;;;;;11.43;6.20;;;128.40;2252.80;;;;;;5052179;28;20057;-70
2023/04/27 03:55:36;;;;;;;9.20;5.45;;;128.70;2252.80;;;;;;5052574;28;20557;-59
2023/04/27 03:58:02;;;;;;;10.65;6.10;;;128.70;2252.80;;;;;;5052483;28;20044;-70
2023/04/27 04:00:28;;;;;;;14.80;8.23;;;128.40;2252.80;;;;;;5052328;28;20020;-68
2023/04/27 04:02:54;;;;;;;33.05;23.20;;;128.50;2252.80;;;;;;5052455;28;20021;-58
2023/04/27 04:05:19;;;;;;;24.05;15.35;;;128.60;2252.80;;;;;;5051995;28;20013;-71
2023/04/27 04:07:45;;;;;;;10.38;6.85;;;128.80;2252.80;;;;;;5052467;28;20029;-58
2023/04/27 04:10:11;;;;;;;10.05;5.18;;;128.80;2252.80;;;;;;5051883;28;20017;-58
2023/04/27 04:12:37;;;;;;;9.13;5.20;;;153.60;2252.80;;;;;;5041462;28;20030;-70
2023/04/27 04:15:03;;;;;;;7.63;3.80;;;153.60;2252.80;;;;;;5041848;28;20392;-71
2023/04/27 04:17:29;;;;;;;9.10;4.43;;;153.80;2252.80;;;;;;5045935;28;20037;-61
2023/04/27 04:19:55;;;;;;;6.07;3.45;;;153.90;2252.80;;;;;;5052179;28;20032;-57
2023/04/27 04:22:20;;;;;;;8.65;3.50;;;154.10;2252.80;;;;;;5051351;28;20040;-58
2023/04/27 04:24:46;;;;;;;8.50;3.83;;;154.30;2252.80;;;;;;5052276;28;20052;-57
2023/04/27 04:27:12;;;;;;;7.43;4.95;;;179.60;2252.80;;;;;;5051550;28;20068;-58
2023/04/27 04:29:38;;;;;;;7.15;3.90;;;154.40;2252.80;;;;;;5051982;28;20022;-58
2023/04/27 04:32:06;;;;;;;8.38;5.63;;;154.50;2252.80;;;;;;5050646;28;20026;-60
2023/04/27 04:34:32;;;;;;;7.32;4.00;;;154.50;2252.80;;;;;;5051578;28;20025;-57
2023/04/27 04:36:58;;;;;;;13.23;5.97;;;179.20;2252.80;;;;;;5049362;28;20391;-57
2023/04/27 04:39:24;;;;;;;8.20;3.92;;;179.20;2252.80;;;;;;5051364;28;20048;-66
2023/04/27 04:41:49;;;;;;;5.90;3.85;;;179.30;2252.80;;;;;;5051307;28;20033;-57
2023/04/27 04:44:15;;;;;;;9.02;4.40;;;179.50;2252.80;;;;;;5051465;28;20021;-56
2023/04/27 04:46:42;;;;;;;7.03;3.60;;;205.10;2252.80;;;;;;5037466;28;20147;-59
2023/04/27 04:49:08;;;;;;;8.40;4.28;;;205.10;2252.80;;;;;;5038315;28;20051;-61
2023/04/27 04:51:34;;;;;;;8.35;4.20;;;205.20;2252.80;;;;;;5051093;28;20101;-62
2023/04/27 04:54:00;;;;;;;7.05;4.47;;;230.50;2252.80;;;;;;5051511;28;20031;-58
2023/04/27 04:56:25;;;;;;;7.80;4.55;;;230.50;2252.80;;;;;;5039601;28;20117;-65
2023/04/27 04:58:51;;;;;;;5.50;3.80;;;230.60;2252.80;;;;;;5048723;28;20032;-59
2023/04/27 05:01:17;;;;;;;13.85;6.25;;;230.90;2252.80;;;;;;5051117;28;20040;-59
2023/04/27 05:03:43;;;;;;;8.43;4.93;;;256.50;2124.80;;;;;;5050869;28;20493;-58
2023/04/27 05:06:08;;;;;;;8.68;4.82;;;307.50;1996.80;;;;;;5051024;28;20052;-63
2023/04/27 05:08:34;;;;;;;8.32;4.97;;;333.20;1945.60;;;;;;5050808;28;20040;-58
2023/04/27 05:11:00;;;;;;;23.27;14.45;;;384.00;1766.40;;;;;;5037129;28;20083;-72
2023/04/27 05:13:26;;;;;;;36.42;23.17;;;410.30;1638.40;;;;;;5050932;28;20021;-57
2023/04/27 05:15:52;;;;;;;14.52;8.93;;;461.20;1536.00;;;;;;5050839;28;20475;-58
2023/04/27 05:18:18;;;;;;;22.80;11.35;;;487.30;1408.00;;;;;;5050736;28;20040;-73
2023/04/27 05:20:44;;;;;;;9.73;5.55;;;487.30;1382.40;;;;;;5050864;28;20528;-59
2023/04/27 05:23:10;;;;;;;10.18;5.25;;;486.40;1408.00;;;;;;5050339;28;20112;-59
2023/04/27 05:25:40;;;;;;;10.48;5.50;;;461.10;1459.20;;;;;;5050729;28;20044;-72
2023/04/27 05:28:07;;;;;;;7.78;5.72;;;461.30;1433.60;;;;;;5050878;28;20033;-69
2023/04/27 05:30:33;;;;;;;9.50;5.47;;;486.40;1408.00;;;;;;5050662;28;20120;-66
2023/04/27 05:32:59;;;;;;;10.00;5.88;;;487.00;1356.80;;;;;;5050693;28;20475;-59
2023/04/27 05:35:24;;;;;;;14.93;10.30;;;487.10;1305.60;;;;;;5050167;28;20036;-58
2023/04/27 05:37:51;;;;;;;20.05;15.20;;;486.70;1356.80;;;;;;5050294;28;20037;-60
2023/04/27 05:40:17;;;;;;;8.68;5.07;;;461.40;1408.00;;;;;;5048504;28;20021;-70
2023/04/27 05:42:45;;;;;;;11.52;9.27;;;486.70;1356.80;;;;;;5030534;28;20090;-60
2023/04/27 05:45:11;;;;;;;8.23;6.35;;;486.50;1382.40;;;;;;5046892;28;20024;-61
2023/04/27 05:47:37;;;;;;;18.15;15.00;;;487.10;1356.80;;;;;;5050450;28;20017;-71
2023/04/27 05:50:03;;;;;;;8.48;4.95;;;512.50;1305.60;;;;;;5050688;28;20131;-59
2023/04/27 05:52:29;;;;;;;10.23;6.55;;;487.20;1356.80;;;;;;5049823;28;20517;-59
2023/04/27 05:54:57;;;;;;;9.88;5.32;;;486.70;1382.40;;;;;;5050013;28;20104;-71
2023/04/27 05:57:23;;;;;;;8.20;6.22;;;461.00;1433.60;;;;;;5050206;28;20132;-58
2023/04/27 05:59:49;;;;;;;9.25;5.13;;;461.30;1459.20;;;;;;5050034;28;20057;-60
2023/04/27 06:02:15;;;;;;;8.73;5.10;;;436.10;1459.20;;;;;;5050293;28;20049;-59
2023/04/27 06:04:41;;;;;;;8.93;5.20;;;512.50;1331.20;;;;;;5049815;28;20021;-58
2023/04/27 06:07:11;;;;;;;6.60;5.38;;;563.90;1254.40;;;;;;5043877;28;20060;-59
2023/04/27 06:09:37;;;;;;;9.27;5.38;;;614.40;1203.20;;;;;;5042896;28;20111;-58
2023/04/27 06:12:04;;;;;;;6.63;5.78;;;665.70;1152.00;;;;;;5049733;28;20175;-63
2023/04/27 06:14:30;;;;;;;7.95;5.82;;;691.30;1075.20;;;;;;5049845;28;20029;-66
2023/04/27 06:16:56;;;;;;;12.20;6.60;;;691.80;1049.60;;;;;;5049451;28;20037;-64
2023/04/27 06:19:22;;;;;;;8.85;6.85;;;691.90;1049.60;;;;;;5050148;28;20100;-72
2023/04/27 06:21:48;;;;;;;7.85;6.07;;;;;;;;;;5048689;28;20102;-68
2023/04/27 06:24:14;;;;;;;9.73;7.15;;;;;;;;;;5049849;28;20470;-57
2023/04/27 06:26:40;;;;;;;12.63;6.93;;;;;;;;;;5035999;28;20075;-57
2023/04/27 06:29:07;;;;;;;11.77;10.57;;;;;;;;;;5049906;28;20384;-58
2023/04/27 06:31:36;;;;;;;8.65;7.20;;;;;;;;;;5049621;28;20486;-57
2023/04/27 06:34:02;;;;;;;8.07;5.88;;;742.40;1024.00;;;;;;5049409;28;20071;-57
2023/04/27 06:36:28;;;;;;;9.85;6.75;;;692.10;998.40;;;;;;5049179;28;20112;-62
2023/04/27 06:38:55;;;;;;;10.18;7.15;;;742.60;1024.00;;;;;;5032019;28;20100;-62
2023/04/27 06:41:22;;;;;;;7.90;7.05;;;742.70;1024.00;;;;;;5030448;28;20022;-63
2023/04/27 06:43:48;;;;;;;8.73;6.82;;;768.20;972.80;;;;;;5031129;28;20024;-59
2023/04/27 06:46:13;;;;;;;8.95;8.02;;;768.50;972.80;;;;;;5042293;28;20025;-62
2023/04/27 06:48:40;;;;;;;7.47;6.30;;;;;;;;;;5049179;28;20104;-57
2023/04/27 06:51:06;;;;;;;12.55;6.05;;;768.70;921.60;;;;;;5049043;28;20057;-60
2023/04/27 06:53:31;;;;;;;12.98;11.57;;;794.20;947.20;;;;;;5049087;28;20057;-59
2023/04/27 06:55:57;;;;;;;9.10;7.18;;;819.60;896.00;;;;;;5048594;28;20060;-60
2023/04/27 06:58:23;;;;;;;9.30;6.68;;;844.90;896.00;;;;;;5049340;28;20111;-61
2023/04/27 07:00:48;;;;;;;7.90;5.80;;;844.80;896.00;;;;;;5048867;28;20049;-62
2023/04/27 07:03:14;;;;;;;6.78;6.07;;;870.40;870.40;;;;;;5049312;28;20465;-62
2023/04/27 07:05:40;;;;;;;11.40;7.80;;;871.00;870.40;;;;;;5022551;28;20021;-60
2023/04/27 07:08:06;;;;;;;10.30;8.05;;;871.10;844.80;;;;;;5049013;28;20014;-60
2023/04/27 07:10:32;;;;;;;9.50;6.82;;;870.90;819.20;;;;;;5022405;28;20047;-62
2023/04/27 07:12:57;;;;;;;7.05;6.35;;;871.30;793.60;;;;;;5048853;28;20159;-61
2023/04/27 07:15:23;;;;;;;8.30;7.07;;;845.70;844.80;;;;;;5049102;28;20025;-60
2023/04/27 07:17:52;;;;;;;8.35;7.35;;;896.50;819.20;;;;;;5049182;28;20368;-60
2023/04/27 07:20:19;;;;;;;7.57;6.78;;;896.30;793.60;;;;;;5048844;28;20131;-60
2023/04/27 07:22:45;;;;;;;6.85;6.25;;;845.40;844.80;;;;;;5048345;28;20033;-63
2023/04/27 07:25:11;;;;;;;8.10;6.85;;;896.00;793.60;;;;;;5049004;28;20024;-62
2023/04/27 07:27:37;;;;;;;10.27;9.27;;;870.90;819.20;;;;;;5048799;28;20028;-62
2023/04/27 07:30:05;;;;;;;7.95;7.25;;;871.20;793.60;;;;;;5030093;28;20104;-61
2023/04/27 07:32:31;;;;;;;7.93;7.13;;;896.40;793.60;;;;;;5028432;28;20036;-65
2023/04/27 07:34:57;;;;;;;10.35;8.13;;;871.20;793.60;;;;;;5027141;28;20025;-65
2023/04/27 07:37:23;;;;;;;10.05;8.98;;;896.80;742.40;;;;;;5048344;28;20175;-62
2023/04/27 07:39:50;;;;;;;9.18;7.68;;;870.60;793.60;;;;;;5048354;28;20108;-62
2023/04/27 07:42:17;;;;;;;12.63;11.50;;;820.10;793.60;;;;;;5048827;28;20084;-65
2023/04/27 07:44:43;;;;;;;7.95;7.25;;;819.90;819.20;;;;;;5048596;28;20025;-64
2023/04/27 07:47:09;;;;;;;9.05;8.25;;;;;;;;;;5048679;28;20028;-63
2023/04/27 07:49:36;;;;;;;8.95;8.15;;;870.50;768.00;;;;;;5048566;28;20061;-62
2023/04/27 07:52:03;;;;;;;8.13;6.43;;;;;;;;;;5048263;28;20045;-62
2023/04/27 07:54:29;;;;;;;8.32;7.53;;;;;;;;;;5048200;28;20039;-63
2023/04/27 07:56:55;;;;;;;6.72;5.80;;;870.50;793.60;;;;;;5048848;28;20040;-63
2023/04/27 07:59:20;;;;;;;8.15;5.63;;;871.00;768.00;;;;;;5048912;28;20379;-63
2023/04/27 08:01:46;;;;;;;13.52;5.97;;;845.40;793.60;;;;;;5048779;28;20067;-63
2023/04/27 08:04:12;;;;;;;6.22;5.63;;;820.00;793.60;;;;;;5048416;28;20044;-63
2023/04/27 08:06:38;;;;;;;6.60;5.97;;;845.70;793.60;;;;;;5049171;28;20095;-63
2023/04/27 08:09:04;;;;;;;8.80;6.82;;;845.70;793.60;;;;;;5052431;28;20031;-64
2023/04/27 08:11:30;;;;;;;7.72;6.68;;;845.40;793.60;;;;;;5037720;28;20025;-62
2023/04/27 08:13:56;;;;;;;7.45;6.68;;;845.30;793.60;;;;;;5052419;28;20025;-63
2023/04/27 08:16:22;;;;;;;8.35;6.20;;;845.60;793.60;;;;;;5051250;28;20489;-63
2023/04/27 08:18:49;;;;;;;9.23;5.43;;;845.30;793.60;;;;;;5052313;28;20036;-63
2023/04/27 08:21:15;;;;;;;5.80;4.82;;;819.20;793.60;;;;;;5051295;28;20025;-63
2023/04/27 08:23:41;;;;;;;6.93;5.90;;;794.10;819.20;;;;;;5043157;28;20037;-62
2023/04/27 08:26:07;;;;;;;9.40;7.80;;;794.50;819.20;;;;;;5034427;28;20037;-62
2023/04/27 08:28:33;;;;;;;9.70;8.80;;;794.20;819.20;;;;;;5052169;28;20036;-65
2023/04/27 08:30:58;;;;;;;8.02;6.85;;;743.00;844.80;;;;;;5051863;28;20025;-62
2023/04/27 08:33:24;;;;;;;5.93;5.10;;;691.70;819.20;;;;;;5051798;28;20467;-62
2023/04/27 08:35:52;;;;;;;7.47;4.20;;;615.30;896.00;;;;;;5051413;28;20047;-63
2023/04/27 08:38:18;;;;;;;9.07;5.55;;;589.50;972.80;;;;;;5051561;28;20044;-63
2023/04/27 08:40:44;;;;;;;7.40;5.20;;;564.00;998.40;;;;;;5051602;28;20471;-62
2023/04/27 08:43:10;;;;;;;7.30;5.30;;;563.40;1024.00;;;;;;5051492;28;20032;-63
2023/04/27 08:45:36;;;;;;;10.05;5.20;;;538.20;1049.60;;;;;;5051419;28;20029;-62
2023/04/27 08:48:02;;;;;;;6.43;4.07;;;537.60;1100.80;;;;;;5051550;28;20017;-62
2023/04/27 08:50:28;;;;;;;5.28;3.55;;;512.40;1100.80;;;;;;5050630;28;20028;-61
2023/04/27 08:52:54;;;;;;;7.80;4.45;;;512.20;1126.40;;;;;;5049837;28;20049;-61
2023/04/27 08:55:20;;;;;;;5.97;3.55;;;512.30;1126.40;;;;;;5051271;28;20464;-61
2023/04/27 08:58:00;;;;;;;6.90;3.75;;;487.30;1100.80;;;;;;5051536;28;20033;-61
2023/04/27 09:00:26;;;;;;;9.35;5.05;;;486.90;1100.80;;;;;;5051367;28;20013;-61
2023/04/27 09:02:52;;;;;;;7.18;3.97;;;461.40;1126.40;;;;;;5051297;28;20032;-61
2023/04/27 09:05:21;;;;;;;6.90;3.83;;;461.10;1177.60;;;;;;5050788;28;20070;-62
2023/04/27 09:07:56;;;;;;;8.80;3.88;;;486.40;1177.60;;;;;;5051217;28;20029;-63
2023/04/27 09:10:23;;;;;;;9.07;4.07;;;460.90;1177.60;;;;;;5051030;28;20020;-61
2023/04/27 09:12:59;;;;;;;7.40;3.67;;;461.20;1203.20;;;;;;5050786;28;20074;-61
2023/04/27 09:15:27;;;;;;;9.05;3.00;;;461.30;1177.60;;;;;;5026311;28;20025;-61
2023/04/27 09:17:56;;;;;;;8.52;4.28;;;461.10;1177.60;;;;;;5050628;28;20029;-62
2023/04/27 09:20:22;;;;;;;7.20;3.42;;;461.10;1177.60;;;;;;5050156;28;20053;-61
2023/04/27 09:22:51;;;;;;;6.15;3.22;;;461.50;1177.60;;;;;;5050493;28;20107;-61
2023/04/27 09:25:28;;;;;;;7.25;3.72;;;461.50;1177.60;;;;;;5049446;28;20498;-61
2023/04/27 09:27:55;;;;;;;11.32;4.45;;;461.30;1203.20;;;;;;5051194;28;20048;-62
2023/04/27 09:30:21;;;;;;;9.25;5.63;;;461.50;1203.20;;;;;;5050423;28;20021;-60
2023/04/27 09:32:51;;;;;;;5.72;3.60;;;461.30;1177.60;;;;;;5050399;28;20570;-61
2023/04/27 09:35:22;;;;;;;9.18;4.90;;;436.10;1152.00;;;;;;5050228;28;20036;-61
2023/04/27 09:37:52;;;;;;;7.53;3.92;;;461.20;1203.20;;;;;;5050261;28;20033;-63
2023/04/27 09:40:25;;;;;;;5.82;3.97;;;461.10;1203.20;;;;;;5049991;28;20025;-62
2023/04/27 09:42:51;;;;;;;6.30;3.80;;;435.90;1177.60;;;;;;5050105;28;20388;-63
2023/04/27 09:45:18;;;;;;;5.43;3.40;;;460.80;1177.60;;;;;;5037668;28;20025;-63
2023/04/27 09:47:45;;;;;;;6.22;4.40;;;461.10;1203.20;;;;;;5050316;28;20024;-61
2023/04/27 09:50:14;;;;;;;7.50;4.65;;;461.30;1203.20;;;;;;5050098;28;20219;-62
2023/04/27 09:52:40;;;;;;;4.95;3.22;;;461.50;1280.00;;;;;;5049629;28;20494;-63
2023/04/27 09:55:10;;;;;;;7.65;4.13;;;461.10;1203.20;;;;;;5050559;28;20021;-65
2023/04/27 09:57:50;;;;;;;7.43;3.80;;;461.00;1203.20;;;;;;5042802;28;20033;-62
2023/04/27 10:00:40;;;;;;;28.80;5.00;;;435.90;1203.20;;;;;;5046243;28;20021;-63
2023/04/27 10:03:27;;;;;;;7.72;4.35;;;435.80;1203.20;;;;;;5050122;28;20395;-63
2023/04/27 10:06:16;;;;;;;9.35;4.25;;;460.80;1254.40;;;;;;5027224;28;20056;-62
2023/04/27 10:08:42;;;;;;;14.32;5.05;;;435.40;1228.80;;;;;;5048913;28;20078;-63
2023/04/27 10:11:15;;;;;;;4.55;3.95;;;435.90;1228.80;;;;;;5044036;28;20033;-64
2023/04/27 10:13:52;;;;;;;8.30;5.03;;;435.50;1228.80;;;;;;5029538;28;20485;-63
2023/04/27 10:16:18;;;;;;;9.88;4.57;;;461.30;1280.00;;;;;;5029431;28;20495;-63
2023/04/27 10:18:54;;;;;;;11.45;6.53;;;461.70;1203.20;;;;;;5029632;28;20033;-64
2023/04/27 10:21:20;;;;;;;8.80;5.72;;;461.40;1203.20;;;;;;5028957;28;20487;-61
2023/04/27 10:23:50;;;;;;;9.73;5.55;;;461.30;1203.20;;;;;;5029650;28;20037;-61
2023/04/27 10:26:26;;;;;;;8.82;5.78;;;461.70;1203.20;;;;;;5029724;28;20112;-62
2023/04/27 10:29:06;;;;;;;7.63;4.90;;;461.20;1228.80;;;;;;5049255;28;20063;-62
2023/04/27 10:31:33;;;;;;;7.47;4.63;;;461.00;1228.80;;;;;;5025963;28;20056;-64
2023/04/27 10:34:07;;;;;;;7.10;4.63;;;436.10;1228.80;;;;;;5029055;28;20028;-62
2023/04/27 10:36:40;;;;;;;8.40;4.45;;;461.00;1254.40;;;;;;5035892;28;20017;-62
2023/04/27 10:39:17;;;;;;;9.48;4.70;;;461.20;1280.00;;;;;;5049348;28;20025;-63
2023/04/27 10:42:10;;;;;;;6.97;3.88;;;461.10;1254.40;;;;;;5049746;28;20033;-63
2023/04/27 10:44:37;;;;;;;9.38;4.53;;;461.50;1228.80;;;;;;5045769;28;20032;-62
2023/04/27 10:47:15;;;;;;;5.68;4.07;;;461.50;1254.40;;;;;;5049252;28;20044;-63
2023/04/27 10:49:41;;;;;;;9.48;5.13;;;461.60;1228.80;;;;;;5025074;28;20063;-64
2023/04/27 10:52:08;;;;;;;7.55;4.88;;;461.70;1228.80;;;;;;5049029;28;20115;-65
2023/04/27 10:54:35;;;;;;;11.57;8.43;;;486.40;1254.40;;;;;;5049256;28;20025;-64
2023/04/27 10:57:08;;;;;;;9.02;6.22;;;461.40;1280.00;;;;;;5048790;28;20478;-64
2023/04/27 10:59:46;;;;;;;7.65;5.55;;;461.40;1254.40;;;;;;5049568;28;20040;-65
2023/04/27 11:02:12;;;;;;;9.85;5.18;;;435.90;1305.60;;;;;;5048924;28;20025;-64
2023/04/27 11:04:40;;;;;;;8.07;5.40;;;461.10;1280.00;;;;;;5049210;28;20021;-64
2023/04/27 11:07:09;;;;;;;8.52;4.30;;;461.50;1254.40;;;;;;5048712;28;20481;-64
2023/04/27 11:09:38;;;;;;;8.20;5.00;;;461.30;1254.40;;;;;;5048983;28;20060;-65
2023/04/27 11:12:11;;;;;;;26.55;16.65;;;461.60;1280.00;;;;;;5048918;28;20464;-64
2023/04/27 11:14:37;;;;;;;8.83;4.50;;;461.50;1280.00;;;;;;5049517;28;20041;-64
2023/04/27 11:17:03;;;;;;;11.55;6.97;;;461.30;1280.00;;;;;;5049285;28;20790;-64
2023/04/27 11:19:29;;;;;;;10.05;4.75;;;461.40;1254.40;;;;;;5048603;28;20113;-64
2023/04/27 11:22:05;;;;;;;6.03;4.50;;;461.40;1280.00;;;;;;5049112;28;20056;-64
2023/04/27 11:24:32;;;;;;;9.73;5.55;;;461.50;1280.00;;;;;;5048798;28;20075;-64
2023/04/27 11:26:59;;;;;;;7.65;4.60;;;461.60;1280.00;;;;;;5048546;28;20033;-64
2023/04/27 11:29:24;;;;;;;10.70;5.63;;;461.30;1280.00;;;;;;5049034;28;20018;-64
2023/04/27 11:31:51;;;;;;;8.40;4.45;;;435.80;1331.20;;;;;;5048573;28;20032;-64
2023/04/27 11:34:20;;;;;;;7.03;4.40;;;435.90;1280.00;;;;;;5049194;28;20139;-64
2023/04/27 11:37:03;;;;;;;9.35;4.03;;;461.30;1305.60;;;;;;5048805;28;20041;-63
2023/04/27 11:39:36;;;;;;;8.10;4.35;;;461.50;1280.00;;;;;;5048534;28;20478;-63
2023/04/27 11:42:18;;;;;;;10.85;4.75;;;461.70;1280.00;;;;;;5050400;28;20044;-63
2023/04/27 11:45:06;;;;;;;7.03;4.32;;;461.40;1280.00;;;;;;5028417;28;20025;-64
2023/04/27 11:47:34;;;;;;;8.50;5.05;;;436.10;1305.60;;;;;;5052333;28;20540;-63
2023/04/27 11:50:05;;;;;;;9.05;4.75;;;460.80;1305.60;;;;;;5052455;28;20112;-65
2023/04/27 11:52:38;;;;;;;9.68;5.15;;;461.50;1305.60;;;;;;5052373;28;20088;-63
2023/04/27 11:55:05;;;;;;;7.82;4.22;;;461.60;1280.00;;;;;;5052211;28;20426;-63
2023/04/27 11:57:33;;;;;;;13.40;4.80;;;461.50;1280.00;;;;;;5052325;28;20037;-63
2023/04/27 12:00:01;;;;;;;10.00;4.53;;;461.50;1305.60;;;;;;5052355;28;20178;-64
2023/04/27 12:02:28;;;;;;;8.80;4.22;;;461.10;1305.60;;;;;;5052734;28;20032;-62
2023/04/27 12:04:54;;;;;;;6.97;4.63;;;461.40;1280.00;;;;;;5052548;28;20043;-62
2023/04/27 12:07:20;;;;;;;6.18;4.90;;;461.50;1280.00;;;;;;5052237;28;20017;-62
2023/04/27 12:09:46;;;;;;;9.85;4.13;;;461.50;1305.60;;;;;;5052229;28;20028;-62
2023/04/27 12:12:17;;;;;;;5.68;4.40;;;461.40;1305.60;;;;;;5051803;28;20016;-64
2023/04/27 12:14:44;;;;;;;89.53;50.15;;;461.40;1280.00;;;;;;5032713;28;20034;-65
2023/04/27 12:17:09;;;;;;;17.30;11.55;;;461.50;1280.00;;;;;;5032311;28;20087;-62
2023/04/27 12:19:36;;;;;;;15.55;9.52;;;486.40;1254.40;;;;;;5032569;28;20029;-62
2023/04/27 12:22:01;;;;;;;9.00;5.97;;;461.60;1254.40;;;;;;5032407;28;20438;-63
2023/04/27 12:24:27;;;;;;;12.60;9.23;;;461.50;1254.40;;;;;;5019215;28;20557;-62
2023/04/27 12:26:53;;;;;;;8.88;5.55;;;461.20;1280.00;;;;;;5045685;28;20033;-63
2023/04/27 12:29:19;;;;;;;8.55;4.40;;;461.20;1280.00;;;;;;5045010;28;20371;-64
2023/04/27 12:31:45;;;;;;;8.68;4.93;;;461.20;1280.00;;;;;;5032697;28;20033;-64
2023/04/27 12:34:10;;;;;;;8.07;5.68;;;461.20;1280.00;;;;;;5051922;28;20348;-64
2023/04/27 12:36:36;;;;;;;9.95;5.45;;;461.20;1305.60;;;;;;5051290;28;20036;-63
2023/04/27 12:39:15;;;;;;;19.25;12.27;;;436.10;1280.00;;;;;;5051782;28;20051;-64
2023/04/27 12:41:43;;;;;;;100.90;89.97;;;460.80;1331.20;;;;;;5051711;28;20032;-63
2023/04/27 12:44:10;;;;;;;29.95;27.13;;;460.90;1305.60;;;;;;5051505;28;20043;-64
2023/04/27 12:46:36;;;;;;;10.57;7.75;;;461.00;1305.60;;;;;;5051726;28;20017;-63
2023/04/27 12:49:01;;;;;;;12.38;9.57;;;460.80;1305.60;;;;;;5051303;28;20490;-64
2023/04/27 12:51:27;;;;;;;9.45;8.15;;;436.10;1305.60;;;;;;5050939;28;20060;-63